createdAt,value
2023-03-10T00:02:14.527Z,64.30
2023-03-10T00:04:41.060Z,64.20
2023-03-10T00:07:07.586Z,64.30
2023-03-10T00:09:34.063Z,64.40
2023-03-10T00:12:00.556Z,64.40
2023-03-10T00:14:27.085Z,64.30
2023-03-10T00:16:53.589Z,64.40
2023-03-10T00:19:20.059Z,64.50
2023-03-10T00:21:46.552Z,64.50
2023-03-10T00:24:13.002Z,65.40
2023-03-10T00:26:39.512Z,64.70
2023-03-10T00:29:06.007Z,64.90
2023-03-10T00:31:32.572Z,64.80
2023-03-10T00:33:59.124Z,64.90
2023-03-10T00:36:25.608Z,64.70
2023-03-10T00:38:52.097Z,64.90
2023-03-10T00:41:18.569Z,65.00
2023-03-10T00:43:45.050Z,64.80
2023-03-10T00:46:11.587Z,65.00
2023-03-10T00:48:38.158Z,65.40
2023-03-10T00:51:04.650Z,65.70
2023-03-10T00:53:31.129Z,65.90
2023-03-10T00:55:57.613Z,65.90
2023-03-10T00:58:24.088Z,66.20
2023-03-10T01:00:50.568Z,66.60
2023-03-10T01:03:17.052Z,66.80
2023-03-10T01:05:43.527Z,67.00
2023-03-10T01:08:10.010Z,66.70
2023-03-10T01:10:36.486Z,66.90
2023-03-10T01:13:02.948Z,67.30
2023-03-10T01:15:29.421Z,67.50
2023-03-10T01:17:55.908Z,68.10
2023-03-10T01:20:22.397Z,68.20
2023-03-10T01:22:48.893Z,68.10
2023-03-10T01:25:15.366Z,68.20
2023-03-10T01:27:41.858Z,68.00
2023-03-10T01:30:08.344Z,68.00
2023-03-10T01:32:34.871Z,68.70
2023-03-10T01:35:01.366Z,68.70
2023-03-10T01:37:27.841Z,68.60
2023-03-10T01:39:54.331Z,68.30
2023-03-10T01:42:20.800Z,68.70
2023-03-10T01:44:47.273Z,68.30
2023-03-10T01:47:13.723Z,68.60
2023-03-10T01:49:40.195Z,68.60
2023-03-10T01:52:06.680Z,68.60
2023-03-10T01:54:33.171Z,68.60
2023-03-10T01:56:59.641Z,68.70
2023-03-10T01:59:26.153Z,68.60
2023-03-10T02:01:52.656Z,69.00
2023-03-10T02:04:19.207Z,68.90
2023-03-10T02:06:45.718Z,69.10
2023-03-10T02:09:12.212Z,69.00
2023-03-10T02:11:38.690Z,69.00
2023-03-10T02:14:05.206Z,69.10
2023-03-10T02:16:31.812Z,69.20
2023-03-10T02:18:58.344Z,69.10
2023-03-10T02:21:24.841Z,69.20
2023-03-10T02:24:00.666Z,69.30
2023-03-10T02:26:28.019Z,69.30
2023-03-10T02:28:54.520Z,69.40
2023-03-10T02:31:21.012Z,69.40
2023-03-10T02:33:47.548Z,69.30
2023-03-10T02:36:16.481Z,69.40
2023-03-10T02:38:42.989Z,69.10
2023-03-10T02:41:09.485Z,69.10
2023-03-10T02:43:35.973Z,69.30
2023-03-10T02:46:02.535Z,69.20
2023-03-10T02:48:29.117Z,69.20
2023-03-10T02:50:56.692Z,69.20
2023-03-10T02:53:23.162Z,69.20
2023-03-10T02:55:49.654Z,69.60
2023-03-10T02:58:16.149Z,69.40
2023-03-10T03:00:42.741Z,69.60
2023-03-10T03:03:09.264Z,69.10
2023-03-10T03:05:40.500Z,69.50
2023-03-10T03:08:06.972Z,69.50
2023-03-10T03:10:34.489Z,69.30
2023-03-10T03:13:00.984Z,69.80
2023-03-10T03:15:27.502Z,69.80
2023-03-10T03:17:53.969Z,69.70
2023-03-10T03:20:20.448Z,69.60
2023-03-10T03:22:46.932Z,69.80
2023-03-10T03:25:13.439Z,69.70
2023-03-10T03:27:39.909Z,69.70
2023-03-10T03:30:06.397Z,69.50
2023-03-10T03:32:32.950Z,69.60
2023-03-10T03:34:59.467Z,69.70
2023-03-10T03:37:25.941Z,69.70
2023-03-10T03:39:52.428Z,70.00
2023-03-10T03:42:18.936Z,70.00
2023-03-10T03:44:45.376Z,69.90
2023-03-10T03:47:11.858Z,70.10
2023-03-10T03:49:38.324Z,70.10
2023-03-10T03:52:04.823Z,70.00
2023-03-10T03:54:31.297Z,70.20
2023-03-10T03:56:57.772Z,69.90
2023-03-10T03:59:24.254Z,70.10
2023-03-10T04:01:50.730Z,70.20
2023-03-10T04:04:17.205Z,70.10
2023-03-10T04:06:43.692Z,70.30
2023-03-10T04:09:10.171Z,70.40
2023-03-10T04:11:36.663Z,70.30
2023-03-10T04:14:03.137Z,70.50
2023-03-10T04:16:29.631Z,70.50
2023-03-10T04:18:56.126Z,70.50
2023-03-10T04:21:22.588Z,70.50
2023-03-10T04:23:49.059Z,70.70
2023-03-10T04:26:15.539Z,70.70
2023-03-10T04:28:42.005Z,70.70
2023-03-10T04:31:08.509Z,70.30
2023-03-10T04:33:35.021Z,70.50
2023-03-10T04:36:01.515Z,70.40
2023-03-10T04:38:28.021Z,70.50
2023-03-10T04:40:54.505Z,70.60
2023-03-10T04:43:20.969Z,70.50
2023-03-10T04:45:47.502Z,70.50
2023-03-10T04:48:13.987Z,70.10
2023-03-10T04:50:40.474Z,70.60
2023-03-10T04:53:06.968Z,70.50
2023-03-10T04:55:33.471Z,70.70
2023-03-10T04:57:59.978Z,70.70
2023-03-10T05:00:26.824Z,70.40
2023-03-10T05:02:53.308Z,70.60
2023-03-10T05:05:19.796Z,70.50
2023-03-10T05:07:46.275Z,70.50
2023-03-10T05:10:12.783Z,70.40
2023-03-10T05:12:39.257Z,70.60
2023-03-10T05:15:05.733Z,70.50
2023-03-10T05:17:32.205Z,70.90
2023-03-10T05:19:58.686Z,70.50
2023-03-10T05:22:25.179Z,70.50
2023-03-10T05:24:51.663Z,70.50
2023-03-10T05:27:18.142Z,70.70
2023-03-10T05:29:47.629Z,70.70
2023-03-10T05:32:14.173Z,70.90
2023-03-10T05:34:40.763Z,71.00
2023-03-10T05:37:07.250Z,70.80
2023-03-10T05:39:33.731Z,70.70
2023-03-10T05:42:00.219Z,70.80
2023-03-10T05:44:26.704Z,71.30
2023-03-10T05:46:53.210Z,71.30
2023-03-10T05:49:19.832Z,71.20
2023-03-10T05:51:46.330Z,71.20
2023-03-10T05:54:12.812Z,71.20
2023-03-10T05:56:39.285Z,71.20
2023-03-10T05:59:05.768Z,71.60
2023-03-10T06:01:32.254Z,71.30
2023-03-10T06:03:58.766Z,71.20
2023-03-10T06:06:25.330Z,71.20
2023-03-10T06:08:51.803Z,71.30
2023-03-10T06:11:18.300Z,72.20
2023-03-10T06:13:46.600Z,71.50
2023-03-10T06:16:13.082Z,71.50
2023-03-10T06:18:39.579Z,71.50
2023-03-10T06:21:06.060Z,71.80
2023-03-10T06:23:32.538Z,71.60
2023-03-10T06:25:59.012Z,71.50
2023-03-10T06:28:25.493Z,71.60
2023-03-10T06:30:51.977Z,71.40
2023-03-10T06:33:18.454Z,71.50
2023-03-10T06:35:44.969Z,71.80
2023-03-10T06:38:11.507Z,71.50
2023-03-10T06:40:38.011Z,71.60
2023-03-10T06:43:04.493Z,71.90
2023-03-10T06:45:31.104Z,71.90
2023-03-10T06:47:57.617Z,72.00
2023-03-10T06:50:24.114Z,72.00
2023-03-10T06:52:50.584Z,72.00
2023-03-10T06:55:17.073Z,71.90
2023-03-10T06:57:43.553Z,71.90
2023-03-10T07:00:10.045Z,72.30
2023-03-10T07:02:36.531Z,72.40
2023-03-10T07:05:03.078Z,72.40
2023-03-10T07:07:29.602Z,72.40
2023-03-10T07:09:56.083Z,72.50
2023-03-10T07:12:22.564Z,72.40
2023-03-10T07:14:49.070Z,72.30
2023-03-10T07:17:15.567Z,72.60
2023-03-10T07:19:42.044Z,72.70
2023-03-10T07:22:11.024Z,72.90
2023-03-10T07:24:37.834Z,72.80
2023-03-10T07:27:04.312Z,72.50
2023-03-10T07:29:30.768Z,72.50
2023-03-10T07:31:57.244Z,72.30
2023-03-10T07:34:23.721Z,72.40
2023-03-10T07:36:50.254Z,72.60
2023-03-10T07:39:16.749Z,72.60
2023-03-10T07:41:43.256Z,72.60
2023-03-10T07:44:09.729Z,72.50
2023-03-10T07:46:36.256Z,72.50
2023-03-10T07:49:02.764Z,72.50
2023-03-10T07:51:29.289Z,72.50
2023-03-10T07:53:55.775Z,72.70
2023-03-10T07:56:22.267Z,72.80
2023-03-10T07:58:48.754Z,72.80
2023-03-10T08:01:15.275Z,72.60
2023-03-10T08:03:41.768Z,72.50
2023-03-10T08:06:08.226Z,72.80
2023-03-10T08:08:40.810Z,72.70
2023-03-10T08:11:07.306Z,73.00
2023-03-10T08:13:33.865Z,73.00
2023-03-10T08:16:00.472Z,72.60
2023-03-10T08:18:28.742Z,72.60
2023-03-10T08:20:55.232Z,72.50
2023-03-10T08:23:22.750Z,72.50
2023-03-10T08:25:49.221Z,72.60
2023-03-10T08:28:15.690Z,72.70
2023-03-10T08:30:57.289Z,72.80
2023-03-10T08:33:28.624Z,73.00
2023-03-10T08:35:55.217Z,72.90
2023-03-10T08:38:21.723Z,73.00
2023-03-10T08:40:48.204Z,72.70
2023-03-10T08:43:14.688Z,73.00
2023-03-10T08:45:41.164Z,73.00
2023-03-10T08:48:07.617Z,72.90
2023-03-10T08:50:34.110Z,72.80
2023-03-10T08:53:00.616Z,72.70
2023-03-10T08:55:27.101Z,72.80
2023-03-10T08:57:53.603Z,72.90
2023-03-10T09:00:20.100Z,72.60
2023-03-10T09:02:46.617Z,72.70
2023-03-10T09:05:16.956Z,72.60
2023-03-10T09:07:43.440Z,72.60
2023-03-10T09:10:09.927Z,72.70
2023-03-10T09:12:39.108Z,72.70
2023-03-10T09:15:05.830Z,72.80
2023-03-10T09:17:32.325Z,72.80
2023-03-10T09:19:58.801Z,73.00
2023-03-10T09:22:25.297Z,72.80
2023-03-10T09:24:51.773Z,72.90
2023-03-10T09:27:18.254Z,72.90
2023-03-10T09:32:18.556Z,73.10
2023-03-10T09:34:45.133Z,73.10
2023-03-10T09:37:11.643Z,73.10
2023-03-10T09:39:38.117Z,72.90
2023-03-10T09:42:04.634Z,73.30
2023-03-10T09:44:31.149Z,73.20
2023-03-10T09:46:57.703Z,73.20
2023-03-10T09:49:28.820Z,73.20
2023-03-10T09:51:55.290Z,73.10
2023-03-10T09:54:21.786Z,72.50
2023-03-10T09:56:48.263Z,73.70
2023-03-10T09:59:14.743Z,73.20
2023-03-10T10:01:41.220Z,73.10
2023-03-10T10:04:07.780Z,73.20
2023-03-10T10:06:34.328Z,73.20
2023-03-10T10:09:05.296Z,73.40
2023-03-10T10:11:32.257Z,73.10
2023-03-10T10:14:00.845Z,72.80
2023-03-10T10:16:34.209Z,73.20
2023-03-10T10:19:01.482Z,73.20
2023-03-10T10:21:33.520Z,73.20
2023-03-10T10:24:06.947Z,73.50
2023-03-10T10:26:33.418Z,73.50
2023-03-10T10:28:59.915Z,73.30
2023-03-10T10:31:26.470Z,73.30
2023-03-10T10:33:52.985Z,73.30
2023-03-10T10:36:19.549Z,73.30
2023-03-10T10:38:46.057Z,73.40
2023-03-10T10:41:12.541Z,73.50
2023-03-10T10:43:39.018Z,73.60
2023-03-10T10:46:10.935Z,73.50
2023-03-10T10:48:37.460Z,73.60
2023-03-10T10:51:03.958Z,73.50
2023-03-10T10:53:30.425Z,73.60
2023-03-10T10:55:56.924Z,73.50
2023-03-10T10:58:23.397Z,73.30
2023-03-10T11:00:49.854Z,73.70
2023-03-10T11:03:16.322Z,73.40
2023-03-10T11:05:42.794Z,73.60
2023-03-10T11:08:09.256Z,73.50
2023-03-10T11:10:35.729Z,73.70
2023-03-10T11:13:02.187Z,73.80
2023-03-10T11:15:28.682Z,73.80
2023-03-10T11:17:55.161Z,73.80
2023-03-10T11:20:21.655Z,73.70
2023-03-10T11:22:48.146Z,73.80
2023-03-10T11:25:14.641Z,73.50
2023-03-10T11:27:41.123Z,73.90
2023-03-10T11:30:07.780Z,73.70
2023-03-10T11:32:34.359Z,73.70
2023-03-10T11:35:00.876Z,74.00
2023-03-10T11:37:27.364Z,73.80
2023-03-10T11:39:53.841Z,73.80
2023-03-10T11:42:20.318Z,74.20
2023-03-10T11:44:46.786Z,73.90
2023-03-10T11:47:13.271Z,73.90
2023-03-10T11:49:39.752Z,74.00
2023-03-10T11:52:06.246Z,73.80
2023-03-10T11:54:32.719Z,73.90
2023-03-10T11:57:04.947Z,73.70
2023-03-10T11:59:31.435Z,73.90
2023-03-10T12:01:57.936Z,73.90
2023-03-10T12:04:24.464Z,74.10
2023-03-10T12:06:50.941Z,73.80
2023-03-10T12:09:17.390Z,74.20
2023-03-10T12:11:43.870Z,74.40
2023-03-10T12:14:10.349Z,74.60
2023-03-10T12:16:36.994Z,74.50
2023-03-10T12:19:03.530Z,74.40
2023-03-10T12:21:30.021Z,74.50
2023-03-10T12:23:56.509Z,74.60
2023-03-10T12:26:22.997Z,74.60
2023-03-10T12:28:49.481Z,74.60
2023-03-10T12:31:16.008Z,74.50
2023-03-10T12:33:42.530Z,74.50
2023-03-10T12:36:09.106Z,74.50
2023-03-10T12:38:35.647Z,74.60
2023-03-10T12:41:02.202Z,74.50
2023-03-10T12:43:28.670Z,74.60
2023-03-10T12:45:55.178Z,74.20
2023-03-10T12:48:21.650Z,74.50
2023-03-10T12:50:48.126Z,74.30
2023-03-10T12:53:14.604Z,74.10
2023-03-10T12:55:41.087Z,74.90
2023-03-10T12:58:07.577Z,74.20
2023-03-10T13:00:34.087Z,74.00
2023-03-10T13:03:00.620Z,74.20
2023-03-10T13:05:27.140Z,74.40
2023-03-10T13:07:53.649Z,74.20
2023-03-10T13:10:20.174Z,74.30
2023-03-10T13:12:46.646Z,74.20
2023-03-10T13:15:13.155Z,74.20
2023-03-10T13:17:39.633Z,74.30
2023-03-10T13:20:06.130Z,74.10
2023-03-10T13:22:32.659Z,74.20
2023-03-10T13:24:59.124Z,74.30
2023-03-10T13:27:25.605Z,74.20
2023-03-10T13:29:52.091Z,74.10
2023-03-10T13:32:18.616Z,74.00
2023-03-10T13:34:45.124Z,74.00
2023-03-10T13:37:17.012Z,74.30
2023-03-10T13:39:43.482Z,74.30
2023-03-10T13:42:10.022Z,74.30
2023-03-10T13:44:36.505Z,74.20
2023-03-10T13:47:02.987Z,74.30
2023-03-10T13:49:29.461Z,74.20
2023-03-10T13:51:55.950Z,74.60
2023-03-10T13:54:22.498Z,73.90
2023-03-10T13:56:53.049Z,74.00
2023-03-10T13:59:19.518Z,74.00
2023-03-10T14:01:45.984Z,74.20
2023-03-10T14:04:12.458Z,74.00
2023-03-10T14:06:38.964Z,74.10
2023-03-10T14:09:07.907Z,74.00
2023-03-10T14:11:34.499Z,73.80
2023-03-10T14:14:00.975Z,73.90
2023-03-10T14:16:27.496Z,73.90
2023-03-10T14:18:53.994Z,74.00
2023-03-10T14:21:20.458Z,73.90
2023-03-10T14:23:46.938Z,73.90
2023-03-10T14:26:13.402Z,74.00
2023-03-10T14:28:39.900Z,74.00
2023-03-10T14:31:06.485Z,73.70
2023-03-10T14:33:33.055Z,73.80
2023-03-10T14:35:59.598Z,74.00
2023-03-10T14:38:26.080Z,73.90
2023-03-10T14:40:52.578Z,73.70
2023-03-10T14:43:19.041Z,73.80
2023-03-10T14:45:45.533Z,73.70
2023-03-10T14:48:12.143Z,73.80
2023-03-10T14:50:41.023Z,74.20
2023-03-10T14:53:07.510Z,74.50
2023-03-10T14:55:33.982Z,75.00
2023-03-10T14:58:00.542Z,75.30
2023-03-10T15:00:27.070Z,75.50
2023-03-10T15:02:53.593Z,75.80
2023-03-10T15:05:20.081Z,76.10
2023-03-10T15:07:46.626Z,76.10
2023-03-10T15:10:13.101Z,75.90
2023-03-10T15:12:39.601Z,75.80
2023-03-10T15:15:11.176Z,75.90
2023-03-10T15:17:37.654Z,76.00
2023-03-10T15:20:04.138Z,76.00
2023-03-10T15:22:30.627Z,76.20
2023-03-10T15:24:57.114Z,76.00
2023-03-10T15:27:23.597Z,75.70
2023-03-10T15:29:50.087Z,75.50
2023-03-10T15:32:16.599Z,75.50
2023-03-10T15:34:47.110Z,75.00
2023-03-10T15:37:13.598Z,75.40
2023-03-10T15:39:40.090Z,76.00
2023-03-10T15:42:06.577Z,75.70
2023-03-10T15:44:33.077Z,76.00
2023-03-10T15:46:59.580Z,75.40
2023-03-10T15:49:26.070Z,75.80
2023-03-10T15:51:52.562Z,75.70
2023-03-10T15:54:19.068Z,75.60
2023-03-10T15:56:45.547Z,75.50
2023-03-10T15:59:12.233Z,75.50
2023-03-10T16:01:38.743Z,76.40
2023-03-10T16:04:05.303Z,76.00
2023-03-10T16:06:31.772Z,75.90
2023-03-10T16:08:58.261Z,75.90
2023-03-10T16:11:24.746Z,76.00
2023-03-10T16:13:51.263Z,75.90
2023-03-10T16:16:17.783Z,75.70
2023-03-10T16:18:44.333Z,75.90
2023-03-10T16:21:10.816Z,76.50
2023-03-10T16:23:37.266Z,76.90
2023-03-10T16:26:03.755Z,76.70
2023-03-10T16:28:30.226Z,76.60
2023-03-10T16:30:56.730Z,76.60
2023-03-10T16:33:23.209Z,77.10
2023-03-10T16:35:49.701Z,77.80
2023-03-10T16:38:16.217Z,79.50
2023-03-10T16:40:42.713Z,80.90
2023-03-10T16:43:09.195Z,81.00
2023-03-10T16:45:35.758Z,80.80
2023-03-10T16:48:02.240Z,80.60
2023-03-10T16:50:28.713Z,80.20
2023-03-10T16:52:55.192Z,79.90
2023-03-10T16:55:21.704Z,80.10
2023-03-10T16:57:48.182Z,80.00
2023-03-10T17:00:14.711Z,80.10
2023-03-10T17:02:41.198Z,79.90
2023-03-10T17:05:07.704Z,79.50
2023-03-10T17:07:36.355Z,79.00
2023-03-10T17:10:06.990Z,78.90
2023-03-10T17:12:33.464Z,78.50
2023-03-10T17:14:59.955Z,78.30
2023-03-10T17:17:26.419Z,78.20
2023-03-10T17:19:52.903Z,77.70
2023-03-10T17:22:19.369Z,77.10
2023-03-10T17:24:45.874Z,77.40
2023-03-10T17:27:12.371Z,77.70
2023-03-10T17:29:38.853Z,77.50
2023-03-10T17:32:05.458Z,77.80
2023-03-10T17:34:31.998Z,77.50
2023-03-10T17:36:58.528Z,77.90
2023-03-10T17:39:25.014Z,76.50
2023-03-10T17:41:51.523Z,76.80
2023-03-10T17:44:17.994Z,76.90
2023-03-10T17:46:44.474Z,76.60
2023-03-10T17:49:10.948Z,77.20
2023-03-10T17:51:39.130Z,76.90
2023-03-10T17:54:06.104Z,76.50
2023-03-10T17:56:32.833Z,76.20
2023-03-10T17:58:59.312Z,76.50
2023-03-10T18:01:25.831Z,76.40
2023-03-10T18:03:52.318Z,75.90
2023-03-10T18:06:18.800Z,75.60
2023-03-10T18:08:45.308Z,75.50
2023-03-10T18:11:11.796Z,76.10
2023-03-10T18:13:38.268Z,75.80
2023-03-10T18:16:04.776Z,75.30
2023-03-10T18:18:31.292Z,75.50
2023-03-10T18:20:57.799Z,75.30
2023-03-10T18:23:24.275Z,75.50
2023-03-10T18:25:50.774Z,75.50
2023-03-10T18:28:17.257Z,75.00
2023-03-10T18:30:43.785Z,75.10
2023-03-10T18:33:10.280Z,75.10
2023-03-10T18:35:36.826Z,75.10
2023-03-10T18:38:03.291Z,74.70
2023-03-10T18:40:29.842Z,74.00
2023-03-10T18:42:56.394Z,74.60
2023-03-10T18:45:22.874Z,75.10
2023-03-10T18:47:49.362Z,74.20
2023-03-10T18:50:15.859Z,74.40
2023-03-10T18:52:42.356Z,74.10
2023-03-10T18:55:08.849Z,74.10
2023-03-10T18:57:35.312Z,73.90
2023-03-10T19:00:01.771Z,74.10
2023-03-10T19:02:28.301Z,73.80
2023-03-10T19:04:54.783Z,73.70
2023-03-10T19:07:21.260Z,74.00
2023-03-10T19:09:47.735Z,74.00
2023-03-10T19:12:14.216Z,74.00
2023-03-10T19:14:40.673Z,73.60
2023-03-10T19:17:07.130Z,73.40
2023-03-10T19:19:33.584Z,73.40
2023-03-10T19:22:00.116Z,73.50
2023-03-10T19:24:26.610Z,74.10
2023-03-10T19:26:53.106Z,73.40
2023-03-10T19:29:19.578Z,73.50
2023-03-10T19:31:46.123Z,73.00
2023-03-10T19:34:12.701Z,73.10
2023-03-10T19:36:39.264Z,73.00
2023-03-10T19:39:05.765Z,72.70
2023-03-10T19:41:32.238Z,73.00
2023-03-10T19:43:58.720Z,73.40
2023-03-10T19:46:25.283Z,72.90
2023-03-10T19:48:51.805Z,72.30
2023-03-10T19:51:18.289Z,72.90
2023-03-10T19:53:44.761Z,72.60
2023-03-10T19:56:11.256Z,72.90
2023-03-10T19:58:37.741Z,72.50
2023-03-10T20:01:04.233Z,72.50
2023-03-10T20:03:30.876Z,72.60
2023-03-10T20:05:57.416Z,72.20
2023-03-10T20:08:23.903Z,72.00
2023-03-10T20:10:50.387Z,72.60
2023-03-10T20:13:16.863Z,71.90
2023-03-10T20:15:43.349Z,72.40
2023-03-10T20:18:09.838Z,72.30
2023-03-10T20:20:36.322Z,72.40
2023-03-10T20:23:02.793Z,72.20
2023-03-10T20:25:29.280Z,72.10
2023-03-10T20:27:55.751Z,72.20
2023-03-10T20:30:22.249Z,71.70
2023-03-10T20:32:48.745Z,72.30
2023-03-10T20:35:15.260Z,71.80
2023-03-10T20:37:41.750Z,71.20
2023-03-10T20:40:08.249Z,71.10
2023-03-10T20:42:34.726Z,71.80
2023-03-10T20:45:01.230Z,71.60
2023-03-10T20:47:27.735Z,71.70
2023-03-10T20:49:54.202Z,71.50
2023-03-10T20:52:20.706Z,71.80
2023-03-10T20:54:47.183Z,71.70
2023-03-10T20:57:13.645Z,71.80
2023-03-10T20:59:40.104Z,71.80
2023-03-10T21:02:06.588Z,71.50
2023-03-10T21:04:33.128Z,71.60
2023-03-10T21:06:59.664Z,70.90
2023-03-10T21:09:26.152Z,71.80
2023-03-10T21:11:52.661Z,71.10
2023-03-10T21:14:19.294Z,71.90
2023-03-10T21:16:49.666Z,71.30
2023-03-10T21:19:16.146Z,72.10
2023-03-10T21:21:42.620Z,71.30
2023-03-10T21:24:09.085Z,71.60
2023-03-10T21:26:35.583Z,71.50
2023-03-10T21:29:02.071Z,71.90
2023-03-10T21:31:28.573Z,71.40
2023-03-10T21:33:55.048Z,71.50
2023-03-10T21:36:21.543Z,71.60
2023-03-10T21:38:48.013Z,71.50
2023-03-10T21:41:14.496Z,71.10
2023-03-10T21:43:40.971Z,71.10
2023-03-10T21:46:07.521Z,71.00
2023-03-10T21:48:34.048Z,71.00
2023-03-10T21:51:00.534Z,71.00
2023-03-10T21:53:27.139Z,70.80
2023-03-10T21:55:53.683Z,70.70
2023-03-10T21:58:20.144Z,70.70
2023-03-10T22:00:46.626Z,71.00
2023-03-10T22:03:13.111Z,71.40
2023-03-10T22:05:39.595Z,71.30
2023-03-10T22:08:06.069Z,70.90
2023-03-10T22:10:32.569Z,70.80
2023-03-10T22:12:59.036Z,71.50
2023-03-10T22:15:25.556Z,71.00
2023-03-10T22:17:52.040Z,70.90
2023-03-10T22:20:18.582Z,70.70
2023-03-10T22:22:45.088Z,70.80
2023-03-10T22:25:11.574Z,71.10
2023-03-10T22:27:38.055Z,71.10
2023-03-10T22:30:04.516Z,70.70
2023-03-10T22:32:31.066Z,70.70
2023-03-10T22:34:57.656Z,70.60
2023-03-10T22:37:24.196Z,70.70
2023-03-10T22:39:50.686Z,70.90
2023-03-10T22:42:17.473Z,71.00
2023-03-10T22:44:43.932Z,71.50
2023-03-10T22:47:10.360Z,70.60
2023-03-10T22:49:36.856Z,71.10
2023-03-10T22:52:03.348Z,71.00
2023-03-10T22:54:29.818Z,71.00
2023-03-10T22:56:56.308Z,70.60
2023-03-10T22:59:22.809Z,70.40
2023-03-10T23:01:49.329Z,70.70
2023-03-10T23:04:15.841Z,70.50
2023-03-10T23:06:42.340Z,70.60
2023-03-10T23:09:10.751Z,70.10
2023-03-10T23:11:37.378Z,70.50
2023-03-10T23:14:03.866Z,70.10
2023-03-10T23:16:30.436Z,70.40
2023-03-10T23:18:56.928Z,70.20
2023-03-10T23:21:23.415Z,70.70
2023-03-10T23:23:49.876Z,70.40
2023-03-10T23:26:16.368Z,70.50
2023-03-10T23:28:42.854Z,70.50
2023-03-10T23:31:09.401Z,70.10
2023-03-10T23:33:35.905Z,70.50
2023-03-10T23:36:02.502Z,70.50
2023-03-10T23:38:29.045Z,70.60
2023-03-10T23:40:55.619Z,70.50
2023-03-10T23:43:22.118Z,70.50
2023-03-10T23:45:48.707Z,70.60
2023-03-10T23:48:15.249Z,70.20
2023-03-10T23:50:47.510Z,70.30
2023-03-10T23:53:13.999Z,69.90
2023-03-10T23:55:40.524Z,70.30
2023-03-10T23:58:07.018Z,70.00
